sensor_id;sensor_type;location;lat;lon;timestamp;pressure;altitude;pressure_sealevel;temperature
14023;BMP180;7086;48.116;11.580;2022-12-19T00:00:23;96243.00;;;0.30
14023;BMP180;7086;48.116;11.580;2022-12-19T00:03:12;96251.00;;;-0.20
14023;BMP180;7086;48.116;11.580;2022-12-19T00:05:52;96104.00;;;0.40
14023;BMP180;7086;48.116;11.580;2022-12-19T00:08:27;96227.00;;;0.50
14023;BMP180;7086;48.116;11.580;2022-12-19T00:15:18;96116.00;;;-0.20
14023;BMP180;7086;48.116;11.580;2022-12-19T00:17:59;96292.00;;;0.20
14023;BMP180;7086;48.116;11.580;2022-12-19T00:20:27;96061.00;;;0.60
14023;BMP180;7086;48.116;11.580;2022-12-19T00:23:04;96169.00;;;0.60
14023;BMP180;7086;48.116;11.580;2022-12-19T00:25:43;96077.00;;;0.50
14023;BMP180;7086;48.116;11.580;2022-12-19T00:28:11;96211.00;;;0.60
14023;BMP180;7086;48.116;11.580;2022-12-19T00:30:45;96148.00;;;0.60
14023;BMP180;7086;48.116;11.580;2022-12-19T00:33:13;96032.00;;;0.60
14023;BMP180;7086;48.116;11.580;2022-12-19T00:35:40;96191.00;;;0.20
14023;BMP180;7086;48.116;11.580;2022-12-19T00:38:08;96068.00;;;0.60
14023;BMP180;7086;48.116;11.580;2022-12-19T00:40:54;96193.00;;;0.10
14023;BMP180;7086;48.116;11.580;2022-12-19T00:43:32;96047.00;;;0.70
14023;BMP180;7086;48.116;11.580;2022-12-19T00:46:33;96164.00;;;0.60
14023;BMP180;7086;48.116;11.580;2022-12-19T00:49:24;96124.00;;;0.80
14023;BMP180;7086;48.116;11.580;2022-12-19T00:52:01;96077.00;;;0.50
14023;BMP180;7086;48.116;11.580;2022-12-19T00:54:39;96122.00;;;0.70
14023;BMP180;7086;48.116;11.580;2022-12-19T00:57:21;96221.00;;;0.90
14023;BMP180;7086;48.116;11.580;2022-12-19T01:00:00;96082.00;;;0.80
14023;BMP180;7086;48.116;11.580;2022-12-19T01:03:05;96195.00;;;0.90
14023;BMP180;7086;48.116;11.580;2022-12-19T01:05:40;95960.00;;;0.70
14023;BMP180;7086;48.116;11.580;2022-12-19T01:09:25;95978.00;;;1.00
14023;BMP180;7086;48.116;11.580;2022-12-19T01:14:56;96011.00;;;1.10
14023;BMP180;7086;48.116;11.580;2022-12-19T01:22:06;96001.00;;;1.10
14023;BMP180;7086;48.116;11.580;2022-12-19T01:33:34;96156.00;;;1.10
14023;BMP180;7086;48.116;11.580;2022-12-19T01:36:49;96022.00;;;1.00
14023;BMP180;7086;48.116;11.580;2022-12-19T01:39:53;96177.00;;;1.10
14023;BMP180;7086;48.116;11.580;2022-12-19T01:46:02;96195.00;;;1.10
14023;BMP180;7086;48.116;11.580;2022-12-19T01:48:48;96109.00;;;0.80
14023;BMP180;7086;48.116;11.580;2022-12-19T01:52:56;96082.00;;;1.20
14023;BMP180;7086;48.116;11.580;2022-12-19T02:03:04;96235.00;;;1.10
14023;BMP180;7086;48.116;11.580;2022-12-19T02:05:45;96207.00;;;1.20
14023;BMP180;7086;48.116;11.580;2022-12-19T02:12:20;96219.00;;;1.10
14023;BMP180;7086;48.116;11.580;2022-12-19T02:15:03;96211.00;;;1.30
14023;BMP180;7086;48.116;11.580;2022-12-19T02:18:33;96105.00;;;1.30
14023;BMP180;7086;48.116;11.580;2022-12-19T02:21:20;96075.00;;;1.30
14023;BMP180;7086;48.116;11.580;2022-12-19T02:31:43;96262.00;;;1.30
14023;BMP180;7086;48.116;11.580;2022-12-19T02:34:58;96093.00;;;1.30
14023;BMP180;7086;48.116;11.580;2022-12-19T02:38:00;96200.00;;;1.30
14023;BMP180;7086;48.116;11.580;2022-12-19T02:43:55;96215.00;;;1.20
14023;BMP180;7086;48.116;11.580;2022-12-19T02:46:58;96209.00;;;1.40
14023;BMP180;7086;48.116;11.580;2022-12-19T02:49:43;96147.00;;;1.20
14023;BMP180;7086;48.116;11.580;2022-12-19T02:52:47;96117.00;;;1.30
14023;BMP180;7086;48.116;11.580;2022-12-19T02:59:54;96164.00;;;1.20
14023;BMP180;7086;48.116;11.580;2022-12-19T03:03:00;96125.00;;;1.30
14023;BMP180;7086;48.116;11.580;2022-12-19T03:06:06;96263.00;;;1.40
14023;BMP180;7086;48.116;11.580;2022-12-19T03:09:20;96174.00;;;1.20
14023;BMP180;7086;48.116;11.580;2022-12-19T03:12:35;96189.00;;;1.20
14023;BMP180;7086;48.116;11.580;2022-12-19T03:15:25;96291.00;;;1.20
14023;BMP180;7086;48.116;11.580;2022-12-19T03:18:11;96249.00;;;1.30
14023;BMP180;7086;48.116;11.580;2022-12-19T03:21:19;96251.00;;;1.20
14023;BMP180;7086;48.116;11.580;2022-12-19T03:24:02;96265.00;;;1.40
14023;BMP180;7086;48.116;11.580;2022-12-19T03:27:04;96142.00;;;1.60
14023;BMP180;7086;48.116;11.580;2022-12-19T03:29:49;96286.00;;;1.70
14023;BMP180;7086;48.116;11.580;2022-12-19T03:32:56;96238.00;;;1.70
14023;BMP180;7086;48.116;11.580;2022-12-19T03:38:54;96152.00;;;1.60
14023;BMP180;7086;48.116;11.580;2022-12-19T03:42:27;96144.00;;;1.80
14023;BMP180;7086;48.116;11.580;2022-12-19T03:45:32;96324.00;;;1.80
14023;BMP180;7086;48.116;11.580;2022-12-19T03:52:06;96267.00;;;1.60
14023;BMP180;7086;48.116;11.580;2022-12-19T03:55:26;96147.00;;;1.80
14023;BMP180;7086;48.116;11.580;2022-12-19T04:03:54;96269.00;;;1.90
14023;BMP180;7086;48.116;11.580;2022-12-19T04:05:56;96237.00;;;1.80
14023;BMP180;7086;48.116;11.580;2022-12-19T04:08:29;96181.00;;;1.80
14023;BMP180;7086;48.116;11.580;2022-12-19T04:11:04;96211.00;;;1.80
14023;BMP180;7086;48.116;11.580;2022-12-19T04:13:37;96247.00;;;1.80
14023;BMP180;7086;48.116;11.580;2022-12-19T04:16:16;96241.00;;;1.80
14023;BMP180;7086;48.116;11.580;2022-12-19T04:18:51;96303.00;;;1.80
14023;BMP180;7086;48.116;11.580;2022-12-19T04:21:26;96265.00;;;1.80
14023;BMP180;7086;48.116;11.580;2022-12-19T04:24:01;96252.00;;;1.90
14023;BMP180;7086;48.116;11.580;2022-12-19T04:26:32;96215.00;;;1.80
14023;BMP180;7086;48.116;11.580;2022-12-19T04:29:03;96292.00;;;1.90
14023;BMP180;7086;48.116;11.580;2022-12-19T04:31:32;96307.00;;;1.90
14023;BMP180;7086;48.116;11.580;2022-12-19T04:34:00;96283.00;;;1.90
14023;BMP180;7086;48.116;11.580;2022-12-19T04:36:28;96293.00;;;1.90
14023;BMP180;7086;48.116;11.580;2022-12-19T04:38:57;96255.00;;;1.80
14023;BMP180;7086;48.116;11.580;2022-12-19T04:41:25;96243.00;;;1.90
14023;BMP180;7086;48.116;11.580;2022-12-19T04:43:52;96237.00;;;1.90
14023;BMP180;7086;48.116;11.580;2022-12-19T04:46:19;96264.00;;;2.00
14023;BMP180;7086;48.116;11.580;2022-12-19T04:48:47;96214.00;;;2.00
14023;BMP180;7086;48.116;11.580;2022-12-19T04:51:15;96281.00;;;2.00
14023;BMP180;7086;48.116;11.580;2022-12-19T04:53:42;96229.00;;;2.00
14023;BMP180;7086;48.116;11.580;2022-12-19T04:56:11;96182.00;;;2.00
14023;BMP180;7086;48.116;11.580;2022-12-19T04:58:39;96222.00;;;2.00
14023;BMP180;7086;48.116;11.580;2022-12-19T05:01:07;96222.00;;;2.00
14023;BMP180;7086;48.116;11.580;2022-12-19T05:03:36;96166.00;;;1.80
14023;BMP180;7086;48.116;11.580;2022-12-19T05:06:06;96239.00;;;2.00
14023;BMP180;7086;48.116;11.580;2022-12-19T05:08:35;96146.00;;;1.60
14023;BMP180;7086;48.116;11.580;2022-12-19T05:11:06;96231.00;;;2.00
14023;BMP180;7086;48.116;11.580;2022-12-19T05:13:36;96175.00;;;2.00
14023;BMP180;7086;48.116;11.580;2022-12-19T05:16:06;96260.00;;;2.00
14023;BMP180;7086;48.116;11.580;2022-12-19T05:18:35;96280.00;;;1.50
14023;BMP180;7086;48.116;11.580;2022-12-19T05:21:05;96264.00;;;2.00
14023;BMP180;7086;48.116;11.580;2022-12-19T05:23:33;96181.00;;;2.00
14023;BMP180;7086;48.116;11.580;2022-12-19T05:26:03;96156.00;;;2.00
14023;BMP180;7086;48.116;11.580;2022-12-19T05:28:31;96253.00;;;2.10
14023;BMP180;7086;48.116;11.580;2022-12-19T05:31:12;96235.00;;;2.10
14023;BMP180;7086;48.116;11.580;2022-12-19T05:33:41;96159.00;;;2.10
14023;BMP180;7086;48.116;11.580;2022-12-19T05:36:14;96308.00;;;2.10
14023;BMP180;7086;48.116;11.580;2022-12-19T05:38:43;96176.00;;;2.10
14023;BMP180;7086;48.116;11.580;2022-12-19T05:41:17;96296.00;;;2.10
14023;BMP180;7086;48.116;11.580;2022-12-19T05:43:49;96265.00;;;2.20
14023;BMP180;7086;48.116;11.580;2022-12-19T05:46:20;96274.00;;;2.00
14023;BMP180;7086;48.116;11.580;2022-12-19T05:48:49;96254.00;;;2.30
14023;BMP180;7086;48.116;11.580;2022-12-19T05:51:18;96242.00;;;2.30
14023;BMP180;7086;48.116;11.580;2022-12-19T05:53:49;96212.00;;;2.30
14023;BMP180;7086;48.116;11.580;2022-12-19T05:56:31;96254.00;;;2.30
14023;BMP180;7086;48.116;11.580;2022-12-19T05:59:00;96161.00;;;2.30
14023;BMP180;7086;48.116;11.580;2022-12-19T06:01:58;96201.00;;;2.40
14023;BMP180;7086;48.116;11.580;2022-12-19T06:04:29;96169.00;;;2.30
14023;BMP180;7086;48.116;11.580;2022-12-19T06:06:59;96209.00;;;2.40
14023;BMP180;7086;48.116;11.580;2022-12-19T06:09:36;96253.00;;;2.40
14023;BMP180;7086;48.116;11.580;2022-12-19T06:12:18;96258.00;;;2.40
14023;BMP180;7086;48.116;11.580;2022-12-19T06:15:00;96221.00;;;2.50
14023;BMP180;7086;48.116;11.580;2022-12-19T06:17:36;96235.00;;;2.50
14023;BMP180;7086;48.116;11.580;2022-12-19T06:20:06;96223.00;;;2.20
14023;BMP180;7086;48.116;11.580;2022-12-19T06:22:44;96166.00;;;2.50
14023;BMP180;7086;48.116;11.580;2022-12-19T06:25:34;96142.00;;;2.50
14023;BMP180;7086;48.116;11.580;2022-12-19T06:28:15;96257.00;;;2.50
14023;BMP180;7086;48.116;11.580;2022-12-19T06:30:44;96259.00;;;2.50
14023;BMP180;7086;48.116;11.580;2022-12-19T20:16:23;95916.00;;;6.50
14023;BMP180;7086;48.116;11.580;2022-12-19T20:19:06;95987.00;;;6.50
14023;BMP180;7086;48.116;11.580;2022-12-19T20:21:49;95975.00;;;6.50
14023;BMP180;7086;48.116;11.580;2022-12-19T20:24:31;95987.00;;;6.50
14023;BMP180;7086;48.116;11.580;2022-12-19T20:39:36;95884.00;;;6.50
14023;BMP180;7086;48.116;11.580;2022-12-19T21:21:00;95943.00;;;6.30
14023;BMP180;7086;48.116;11.580;2022-12-19T21:23:28;95973.00;;;6.50
14023;BMP180;7086;48.116;11.580;2022-12-19T21:25:59;96005.00;;;6.70
14023;BMP180;7086;48.116;11.580;2022-12-19T21:28:28;95976.00;;;6.70
14023;BMP180;7086;48.116;11.580;2022-12-19T21:31:06;95982.00;;;6.70
14023;BMP180;7086;48.116;11.580;2022-12-19T21:33:39;95793.00;;;6.70
